createdAt,value
2022-10-18T00:01:06.269Z,52.30
2022-10-18T00:06:11.636Z,52.76
2022-10-18T00:11:15.177Z,52.49
2022-10-18T00:16:19.755Z,53.42
2022-10-18T00:21:26.131Z,54.49
2022-10-18T00:26:30.913Z,55.01
2022-10-18T00:31:35.738Z,55.91
2022-10-18T00:36:41.085Z,57.75
2022-10-18T00:41:45.033Z,57.71
2022-10-18T00:46:49.810Z,58.37
2022-10-18T00:52:00.007Z,58.91
2022-10-18T00:57:04.301Z,59.57
2022-10-18T01:02:08.729Z,59.88
2022-10-18T01:07:26.927Z,60.86
2022-10-18T01:12:39.943Z,61.00
2022-10-18T01:17:52.576Z,60.16
2022-10-18T01:23:04.374Z,58.77
2022-10-18T01:28:20.822Z,58.12
2022-10-18T01:33:32.296Z,58.03
2022-10-18T01:38:37.695Z,57.12
2022-10-18T01:43:42.221Z,57.30
2022-10-18T01:48:47.758Z,57.91
2022-10-18T01:53:51.300Z,58.16
2022-10-18T01:59:19.905Z,58.74
2022-10-18T02:04:34.595Z,59.53
2022-10-18T02:09:40.994Z,60.35
2022-10-18T02:14:46.358Z,60.67
2022-10-18T02:19:51.865Z,61.68
2022-10-18T02:24:58.308Z,61.10
2022-10-18T02:30:01.946Z,61.82
2022-10-18T02:35:11.721Z,61.28
2022-10-18T02:40:15.998Z,60.78
2022-10-18T02:45:19.664Z,60.28
2022-10-18T02:50:24.892Z,60.17
2022-10-18T03:00:32.827Z,60.34
2022-10-18T03:05:38.917Z,61.56
2022-10-18T03:10:44.850Z,60.95
2022-10-18T03:15:48.490Z,60.80
2022-10-18T03:20:56.583Z,61.42
2022-10-18T03:26:00.300Z,61.46
2022-10-18T03:31:05.443Z,61.69
2022-10-18T03:36:11.654Z,62.11
2022-10-18T03:41:15.207Z,62.00
2022-10-18T03:46:18.742Z,61.75
2022-10-18T03:51:23.972Z,62.05
2022-10-18T03:56:27.543Z,61.83
2022-10-18T04:01:31.335Z,62.21
2022-10-18T04:06:36.625Z,62.13
2022-10-18T04:11:40.228Z,62.99
2022-10-18T04:16:43.774Z,63.69
2022-10-18T04:21:48.964Z,64.55
2022-10-18T04:26:55.078Z,64.91
2022-10-18T04:31:58.618Z,65.21
2022-10-18T04:37:03.805Z,65.67
2022-10-18T04:42:07.336Z,65.42
2022-10-18T04:47:10.910Z,65.96
2022-10-18T04:52:16.057Z,66.33
2022-10-18T04:57:19.602Z,66.53
2022-10-18T05:02:23.143Z,66.43
2022-10-18T05:07:28.366Z,67.47
2022-10-18T05:12:32.460Z,67.45
2022-10-18T05:17:36.196Z,67.75
2022-10-18T05:22:41.417Z,68.71
2022-10-18T05:27:44.967Z,68.90
2022-10-18T05:32:48.682Z,68.57
2022-10-18T05:37:53.981Z,69.21
2022-10-18T05:42:57.511Z,68.88
2022-10-18T05:48:01.046Z,69.06
2022-10-18T05:53:12.029Z,69.24
2022-10-18T05:58:16.168Z,69.68
2022-10-18T06:03:19.882Z,69.90
2022-10-18T06:08:25.065Z,69.89
2022-10-18T06:13:31.114Z,70.02
2022-10-18T06:18:36.122Z,70.53
2022-10-18T06:23:41.530Z,70.73
2022-10-18T06:28:45.950Z,70.38
2022-10-18T06:33:49.704Z,70.33
2022-10-18T06:38:55.173Z,71.11
2022-10-18T06:43:58.695Z,71.52
2022-10-18T06:49:02.196Z,71.59
2022-10-18T06:54:17.618Z,71.92
2022-10-18T06:59:21.082Z,72.89
2022-10-18T07:04:24.644Z,72.10
2022-10-18T07:09:30.044Z,71.98
2022-10-18T07:14:33.571Z,72.27
2022-10-18T07:19:37.848Z,72.74
2022-10-18T07:24:43.019Z,72.92
2022-10-18T07:29:46.565Z,72.54
2022-10-18T07:34:50.086Z,72.97
2022-10-18T07:39:55.274Z,73.28
2022-10-18T07:44:58.801Z,73.21
2022-10-18T07:50:02.308Z,73.01
2022-10-18T07:55:08.137Z,73.76
2022-10-18T08:00:12.826Z,73.66
2022-10-18T08:05:16.502Z,73.67
2022-10-18T08:10:22.441Z,74.16
2022-10-18T08:15:25.298Z,74.37
2022-10-18T08:20:31.207Z,73.92
2022-10-18T08:30:45.377Z,73.37
2022-10-18T08:35:56.283Z,74.81
2022-10-18T08:41:15.938Z,74.78
2022-10-18T08:46:19.544Z,74.28
2022-10-18T08:51:28.689Z,75.12
2022-10-18T08:56:35.346Z,74.57
2022-10-18T09:01:46.061Z,75.31
2022-10-18T09:06:59.279Z,75.41
2022-10-18T09:12:21.181Z,75.23
2022-10-18T09:17:32.692Z,75.85
2022-10-18T09:22:49.423Z,75.04
2022-10-18T09:27:56.987Z,75.64
2022-10-18T09:33:08.666Z,74.92
2022-10-18T09:38:14.303Z,75.48
2022-10-18T09:43:23.722Z,76.07
2022-10-18T09:48:30.954Z,75.96
2022-10-18T09:53:41.225Z,75.70
2022-10-18T09:58:48.069Z,75.57
2022-10-18T10:03:51.717Z,75.36
2022-10-18T10:09:06.197Z,76.86
2022-10-18T10:19:27.011Z,76.99
2022-10-18T10:24:41.440Z,77.08
2022-10-18T10:30:00.384Z,77.71
2022-10-18T10:35:33.859Z,76.86
2022-10-18T10:40:49.616Z,77.84
2022-10-18T10:46:08.305Z,78.17
2022-10-18T10:51:13.204Z,77.45
2022-10-18T10:56:23.952Z,77.94
2022-10-18T11:01:32.162Z,77.86
2022-10-18T11:07:07.614Z,77.73
2022-10-18T11:12:23.427Z,78.17
2022-10-18T11:17:34.999Z,77.76
2022-10-18T11:22:43.202Z,77.74
2022-10-18T11:27:54.102Z,77.97
2022-10-18T11:33:07.694Z,77.98
2022-10-18T11:38:30.476Z,77.93
2022-10-18T11:44:00.565Z,77.93
2022-10-18T11:49:19.992Z,77.98
2022-10-18T11:54:42.926Z,78.91
2022-10-18T11:59:57.688Z,78.39
2022-10-18T12:05:23.691Z,78.38
2022-10-18T12:10:44.189Z,78.75
2022-10-18T12:15:54.841Z,78.20
2022-10-18T12:21:01.574Z,78.94
2022-10-18T12:26:08.092Z,79.16
2022-10-18T12:31:21.489Z,79.76
2022-10-18T12:36:48.680Z,79.46
2022-10-18T12:41:56.456Z,79.65
2022-10-18T12:47:02.124Z,79.32
2022-10-18T12:52:19.576Z,79.15
2022-10-18T12:57:24.644Z,79.45
2022-10-18T13:02:32.255Z,78.71
2022-10-18T13:07:41.919Z,79.65
2022-10-18T13:13:24.467Z,79.67
2022-10-18T13:18:45.651Z,79.80
2022-10-18T13:24:16.327Z,80.30
2022-10-18T13:29:38.101Z,80.90
2022-10-18T13:34:42.022Z,79.95
2022-10-18T13:39:47.430Z,79.92
2022-10-18T13:44:50.988Z,79.68
2022-10-18T13:50:28.588Z,80.89
2022-10-18T13:55:49.801Z,80.72
2022-10-18T14:01:06.942Z,80.34
2022-10-18T14:06:13.124Z,80.96
2022-10-18T14:11:28.026Z,81.82
2022-10-18T14:16:38.320Z,81.19
2022-10-18T14:21:49.924Z,82.27
2022-10-18T14:27:17.082Z,82.79
2022-10-18T14:32:26.031Z,81.77
2022-10-18T14:37:32.714Z,81.41
2022-10-18T14:42:49.851Z,81.72
2022-10-18T14:47:53.434Z,80.49
2022-10-18T14:52:57.165Z,80.20
2022-10-18T14:58:03.805Z,80.98
2022-10-18T15:03:12.132Z,80.47
2022-10-18T15:08:16.787Z,79.89
2022-10-18T15:13:22.134Z,79.39
2022-10-18T15:18:27.926Z,78.59
2022-10-18T15:23:31.585Z,78.03
2022-10-18T15:28:39.639Z,76.72
2022-10-18T15:33:43.261Z,75.27
2022-10-18T15:38:49.897Z,73.07
2022-10-18T15:44:11.549Z,70.54
2022-10-18T15:49:56.212Z,69.46
2022-10-18T15:55:01.036Z,68.64
2022-10-18T16:00:08.904Z,65.47
2022-10-18T16:05:16.283Z,65.00
2022-10-18T16:10:20.023Z,64.37
2022-10-18T16:15:25.563Z,61.47
2022-10-18T16:20:29.231Z,60.80
2022-10-18T16:25:32.761Z,60.09
2022-10-18T16:30:38.073Z,59.62
2022-10-18T16:35:41.618Z,59.88
2022-10-18T16:40:45.194Z,60.95
2022-10-18T16:45:52.600Z,61.12
2022-10-18T16:50:57.299Z,60.84
2022-10-18T16:56:02.828Z,60.48
2022-10-18T17:01:08.985Z,59.23
2022-10-18T17:06:16.879Z,59.61
2022-10-18T17:11:21.682Z,58.78
2022-10-18T17:21:38.376Z,59.18
2022-10-18T17:26:41.949Z,59.89
2022-10-18T17:31:47.154Z,58.71
2022-10-18T17:36:50.685Z,58.48
2022-10-18T17:41:54.222Z,57.04
2022-10-18T17:46:59.382Z,54.76
2022-10-18T17:52:06.164Z,53.83
2022-10-18T17:57:10.726Z,53.16
2022-10-18T18:02:15.978Z,52.97
2022-10-18T18:07:18.779Z,50.27
2022-10-18T18:12:22.346Z,50.27
2022-10-18T18:17:34.097Z,47.41
2022-10-18T18:22:43.752Z,45.52
2022-10-18T18:27:47.501Z,45.69
2022-10-18T18:32:52.720Z,45.45
2022-10-18T18:37:56.307Z,45.30
2022-10-18T18:43:07.133Z,46.00
2022-10-18T18:48:24.238Z,44.66
2022-10-18T18:53:29.532Z,44.25
2022-10-18T18:58:34.662Z,43.62
2022-10-18T19:03:39.578Z,40.48
2022-10-18T19:08:43.467Z,40.61
2022-10-18T19:13:47.387Z,40.06
2022-10-18T19:19:01.354Z,38.37
2022-10-18T19:24:05.914Z,38.52
2022-10-18T19:29:13.097Z,39.72
2022-10-18T19:34:19.219Z,37.23
2022-10-18T19:39:24.570Z,37.27
2022-10-18T19:44:31.615Z,37.08
2022-10-18T19:49:36.850Z,36.87
2022-10-18T19:54:40.463Z,37.67
2022-10-18T19:59:43.991Z,37.48
2022-10-18T20:04:49.147Z,38.33
2022-10-18T20:09:52.649Z,38.25
2022-10-18T20:14:56.198Z,38.24
2022-10-18T20:20:01.399Z,38.01
2022-10-18T20:25:05.414Z,37.46
2022-10-18T20:30:11.390Z,37.51
2022-10-18T20:35:17.475Z,36.45
2022-10-18T20:40:21.004Z,36.14
2022-10-18T20:45:25.071Z,35.48
2022-10-18T20:50:30.227Z,35.31
2022-10-18T20:55:33.792Z,34.81
2022-10-18T21:00:37.450Z,35.14
2022-10-18T21:05:47.404Z,34.58
2022-10-18T21:10:53.398Z,35.52
2022-10-18T21:15:57.603Z,35.21
2022-10-18T21:26:22.171Z,35.11
2022-10-18T21:31:27.254Z,34.39
2022-10-18T21:36:35.151Z,34.06
2022-10-18T21:41:38.721Z,34.84
2022-10-18T21:46:42.874Z,34.13
2022-10-18T21:51:48.033Z,33.52
2022-10-18T21:56:51.588Z,33.84
2022-10-18T22:01:55.137Z,33.69
2022-10-18T22:07:00.302Z,32.83
2022-10-18T22:12:03.884Z,33.60
2022-10-18T22:17:07.450Z,33.63
2022-10-18T22:22:12.610Z,34.02
2022-10-18T22:27:16.189Z,34.47
2022-10-18T22:32:19.754Z,33.45
2022-10-18T22:37:24.967Z,33.72
2022-10-18T22:42:28.584Z,32.71
2022-10-18T22:47:33.082Z,33.48
2022-10-18T22:52:38.445Z,32.43
2022-10-18T22:57:41.995Z,33.33
2022-10-18T23:02:45.523Z,33.06
2022-10-18T23:07:51.073Z,32.63
2022-10-18T23:12:54.646Z,33.54
2022-10-18T23:17:59.115Z,34.21
2022-10-18T23:23:04.252Z,34.96
2022-10-18T23:28:07.824Z,37.57
2022-10-18T23:33:11.365Z,38.22
2022-10-18T23:38:16.541Z,40.23
2022-10-18T23:43:20.061Z,40.75
2022-10-18T23:48:23.614Z,41.68
2022-10-18T23:53:53.181Z,42.19
2022-10-18T23:58:57.667Z,41.58
